METAR Formatted Surface Weather Observation
Issued by NWS Los Angeles, CA

Home | Current Version | Previous Version | Text Only | Print | Product List | Glossary On
Versions: 1 2 3 4 5 6 7 8 9 10 11 12 13 14 15 16
000
SAUS46 KLOX 271152
MTRSMX
METAR KSMX 271151Z AUTO 00000KT 8SM -RA OVC070 14/12 A3015 RMK AO2
SLP210 P0001 60002 70002 T01390117 10189 20139 51015 TSNO $



USA.gov is the U.S. government's official web portal to all federal, state and local government web resources and services.